Skip Navigation LinksHome page > Weather > Current weather Skip Navigation Links

Current Weather

Ndjamena, Chad

For information only: do not use for flight planning or navigation.
Latest weather
Observation time Thursday, October 23, 2014 4:00 AM WAT
Local time Thursday, October 23, 2014 4:45 AM WAT
Flight conditions Visual Meteorological Conditions
Winds
Wind speed calm
Visibility 6.2 mi.
Sky condition
Ceiling unlimited
Sky clear
Temperature 82°F
Dewpoint 66°F
Altimeter 29.85 in.Hg
Derived measurements
Relative humidity 58%
Heat index 85°F
Density altitude 2166 ft.
Remarks
Ceiling and visibility OK.
No significant changes expected in the next two hours.
METAR FTTJ 230300Z 00000KT CAVOK 28/19 Q1011 NOSIG

Settings

Location code

InnerDrive.Weather 4.0.5399.0 Release CLR 4.0.30319.34014
Copyright ©2014 Inner Drive Technology. All rights reserved. Portions Copyright ©1986-2014 David Braverman.

Find weather

Site navigation


Skip Navigation Links

Place info

Page info

PayPal - The safer, easier way to pay online!

Return home.

Copyright ©2014 Inner Drive Technology. Purveyors of fine, hand-crafted computer software. Page printed 2014-10-23T03:45:22 UTC.